Theodore, AL (36590)

2:57 PM CDT on September 01, 2015 (GMT -0500)
Rabbit Creek | | Change Station
CLOSE
Current Station
Personal Weather Station
Location: Theodore, AL
Elevation: 15 ft
Nearby Weather Stations

Elev 15 ft 30.58 °N, 88.13 °W | Updated 14 seconds ago

Partly Cloudy
Partly Cloudy
92.9 °F
Feels Like 97 °F
N
1.0
Wind Variable Wind from South
Gusts 3.0 mph

Today
High -- | Low -- °F
--% Chance of Precip.
Yesterday
High -- | Low -- °F
Precip. -- in
6:29 AM 7:15 PM
Waning Gibbous, 87% visible
Pressure 30.06 in
Visibility 10.0 miles
Clouds Scattered Clouds 6000 ft
Heat Index 97 °F
Dew Point 67 °F
Humidity 43%
Rainfall 0.00 in
Snow Depth Not available.
UV 7 out of 12
Pollen 8.60 out of 12
Air Quality Not available.
Flu Activity Not available.
METAR KBFM 011953Z 14004KT 10SM SCT060 34/19 A3005 RMK AO2 SLP177 T03390189
Pressure 30.06 in
Visibility 10.0 miles
Clouds Scattered Clouds 6000 ft
Heat Index 97 °F
Dew Point 67 °F
Humidity 43%
Rainfall 0.00 in
Snow Depth Not available.
UV 7 out of 12
Pollen 8.60 out of 12
Air Quality Not available.
Flu Activity Not available.
METAR KBFM 011953Z 14004KT 10SM SCT060 34/19 A3005 RMK AO2 SLP177 T03390189

10-Day Weather Forecast

×

Almanac

Astronomy

Sep. 01, 2015 Rise Set
Actual Time
Civil Twilight
Nautical Twilight
Astronomical Twilight
Moon
Length of Visible Light
Length of Day
Tomorrow will be .
, % of the Moon is Illuminated

Today's Extremes

State Highs State Lows

Community

WunderPhotos

Upload Photos

1,851,597 photos uploaded!

WunderBlogs® & News

Nearby

Air Quality

  Air Quality AQ Index Pollutant
Not available.

Snow Depth

Station Depth Elevation

Earthquake Activity

City Distance Mag. Time & Date
Minimum magnitude displayed is 2.5.

Coastal Water Temperatures

Place Temperature

Stations

Nearby Weather Stations

Station Location Temp. Windchill Dew Point Humidity Wind Precip. Elev Updated Type